YPD weather

Parry Sound Area Municipal Airport
Parry Sound, Ontario, Canada

Public forecast

Using degrees Celsius for public forecast. Weather courtesy of forecast.io.

Closest aviation weather report (METAR) to Parry Sound Area Municipal Airport

Closest report is Muskoka Airport, 28.0 nm (51.9 km) SE. Retrieved 2019/10/16 18:00 UTC (6 minutes ago):

CYQA 161800Z AUTO 17006KT 9SM -RA SCT006 SCT030 OVC041 10/09 A2948 RMK PCPN 05MM PAST HR SLP990

Closest aviation forecast (TAF) to Parry Sound Area Municipal Airport

Closest forecast is Muskoka Airport, 28.0 nm (51.9 km) SE. Retrieved 2019/10/16 14:39 UTC (3 hours ago):

TAF CYQA 161338Z 1614/1702 10005KT 2SM -RA BR OVC007 TEMPO 1614/1615 6SM -RA BR SCT007 OVC015 PROB30 1614/1615 VRB15G25KT 1SM +TSRA BR BKN004 OVC015CB FM161500 11008KT 6SM -RA BR SCT005 OVC010 TEMPO 1615/1623 2SM -RA BR OVC005 BECMG 1618/1620 19012G22KT FM162300 19010KT 3/4SM -DZ -RA BR OVC003 RMK FCST BASED ON AUTO OBS NXT FCST BY 162000Z